Time;durP1;ratioP1;P1;durP2;ratioP2;P2;SDS_P1;SDS_P2;PMS_P1;PMS_P2;Temp;Humidity;BMP_temperature;BMP_pressure;BME280_temperature;BME280_humidity;BME280_pressure;Samples;Min_cycle;Max_cycle;Signal;HPM_P1;HPM_P2
2022/08/04 00:00:17;;;;;;;;;;;;;;;21.55;28.75;97932.19;5035561;28;728;-77
2022/08/04 00:02:48;;;;;;;;;;;;;;;21.45;28.92;97934.09;5050686;28;751;-77
2022/08/04 00:05:34;;;;;;;;;;;;;;;21.24;29.08;97924.13;5035442;28;860;-77
2022/08/04 00:08:00;;;;;;;;;;;;;;;21.67;28.59;97928.63;5032880;28;1918;-77
2022/08/04 00:10:25;;;;;;;;;;;;;;;21.68;28.75;97924.56;5033318;28;952;-77
2022/08/04 00:12:51;;;;;;;;;;;;;;;21.62;28.50;97934.84;5016519;28;1038;-77
2022/08/04 00:15:16;;;;;;;;;;;;;;;21.56;28.58;97933.81;5013004;28;920;-77
2022/08/04 00:18:02;;;;;;;;;;;;;;;21.49;28.68;97933.97;5012987;28;763;-77
2022/08/04 00:20:28;;;;;;;;;;;;;;;21.78;28.31;97940.47;5013142;28;940;-77
2022/08/04 00:22:54;;;;;;;;;;;;;;;21.62;28.46;97943.34;5017345;28;873;-77
2022/08/04 00:25:19;;;;;;;;;;;;;;;21.44;28.98;97948.69;5016979;28;893;-77
2022/08/04 00:27:45;;;;;;;;;;;;;;;21.70;28.35;97950.38;4997318;28;815;-77
2022/08/04 00:30:11;;;;;;;;;;;;;;;21.69;28.68;97948.78;4997237;28;1914;-77
2022/08/04 00:32:38;;;;;;;;;;;;;;;21.79;28.34;97955.41;4997318;28;959;-77
2022/08/04 00:35:03;;;;;;;;;;;;;;;22.25;29.00;97956.94;4997376;28;736;-77
2022/08/04 00:37:29;;;;;;;;;;;;;;;22.36;29.50;97962.28;4997337;28;993;-77
2022/08/04 00:39:54;;;;;;;;;;;;;;;22.42;29.77;97956.84;4997393;28;937;-77
2022/08/04 00:42:33;;;;;;;;;;;;;;;22.42;29.43;97951.16;4981121;28;1298;-77
2022/08/04 00:45:02;;;;;;;;;;;;;;;21.95;30.04;97960.22;4988154;28;906;-77
2022/08/04 00:47:27;;;;;;;;;;;;;;;21.94;30.00;97959.44;4977744;28;1209;-77
2022/08/04 00:49:53;;;;;;;;;;;;;;;21.94;29.89;97961.47;4977846;28;1984;-76
2022/08/04 00:52:18;;;;;;;;;;;;;;;21.59;30.47;97955.56;4984064;28;823;-77
2022/08/04 00:54:53;;;;;;;;;;;;;;;21.59;30.23;97956.34;4997087;28;720;-77
2022/08/04 00:57:36;;;;;;;;;;;;;;;21.84;29.85;97961.31;4996771;28;925;-77
2022/08/04 01:00:06;;;;;;;;;;;;;;;21.75;30.14;97947.00;4996927;28;940;-77
2022/08/04 01:02:36;;;;;;;;;;;;;;;21.49;30.42;97959.47;4997161;28;786;-77
2022/08/04 01:05:05;;;;;;;;;;;;;;;21.61;30.10;97964.41;5015092;28;908;-77
2022/08/04 01:07:31;;;;;;;;;;;;;;;21.76;30.02;97954.28;5053899;28;774;-77
2022/08/04 01:09:59;;;;;;;;;;;;;;;21.69;29.97;97960.13;5038112;28;2027;-77
2022/08/04 01:12:51;;;;;;;;;;;;;;;21.47;30.13;97956.28;5038404;28;833;-77
2022/08/04 01:15:18;;;;;;;;;;;;;;;21.51;30.25;97962.66;5035859;28;1035;-77
2022/08/04 01:17:56;;;;;;;;;;;;;;;21.50;30.27;97953.38;5019639;28;1079;-77
2022/08/04 01:20:23;;;;;;;;;;;;;;;21.77;29.96;97955.88;5035937;28;1037;-77
2022/08/04 01:23:21;;;;;;;;;;;;;;;21.61;30.01;97964.41;4996542;28;1010;-77
2022/08/04 01:26:01;;;;;;;;;;;;;;;21.74;29.79;97956.75;4957371;29;919;-77
2022/08/04 01:28:27;;;;;;;;;;;;;;;21.57;30.37;97963.72;4957258;29;1914;-77
2022/08/04 01:30:55;;;;;;;;;;;;;;;21.76;29.85;97965.59;4941529;29;792;-77
2022/08/04 01:33:21;;;;;;;;;;;;;;;21.95;29.60;97963.06;4956394;28;1070;-77
2022/08/04 01:35:47;;;;;;;;;;;;;;;21.85;29.58;97951.56;4957557;29;1022;-77
2022/08/04 01:38:13;;;;;;;;;;;;;;;21.72;29.85;97949.97;4957134;29;982;-77
2022/08/04 01:40:38;;;;;;;;;;;;;;;21.52;30.09;97952.91;4957741;29;823;-77
2022/08/04 01:43:04;;;;;;;;;;;;;;;21.58;29.99;97953.97;4957132;29;965;-77
2022/08/04 01:45:29;;;;;;;;;;;;;;;21.71;29.62;97943.50;4957233;29;859;-77
2022/08/04 01:47:55;;;;;;;;;;;;;;;21.85;29.45;97945.91;4957043;29;1241;-77
2022/08/04 01:50:20;;;;;;;;;;;;;;;21.90;29.45;97940.94;4957372;29;1985;-77
2022/08/04 01:52:46;;;;;;;;;;;;;;;21.66;29.74;97932.72;4929053;29;1009;-77
2022/08/04 01:55:12;;;;;;;;;;;;;;;21.80;29.95;97928.66;4938165;29;886;-77
2022/08/04 01:57:44;;;;;;;;;;;;;;;21.52;30.11;97930.28;4921991;29;883;-77
2022/08/04 02:00:10;;;;;;;;;;;;;;;21.89;29.70;97930.84;4922107;29;909;-77
2022/08/04 02:02:36;;;;;;;;;;;;;;;21.92;29.30;97929.97;4999086;28;739;-77
2022/08/04 02:05:02;;;;;;;;;;;;;;;21.55;30.01;97927.34;5015178;28;765;-76
2022/08/04 02:07:30;;;;;;;;;;;;;;;21.59;29.92;97928.03;5015287;28;810;-77
2022/08/04 02:10:05;;;;;;;;;;;;;;;21.87;29.49;97930.53;5018520;28;1906;-77
2022/08/04 02:12:30;;;;;;;;;;;;;;;21.57;29.82;97924.06;5037457;28;747;-77
2022/08/04 02:14:58;;;;;;;;;;;;;;;21.69;29.76;97925.34;5037638;28;735;-77
2022/08/04 02:17:31;;;;;;;;;;;;;;;21.59;30.01;97930.06;5052641;28;822;-77
2022/08/04 02:20:05;;;;;;;;;;;;;;;21.54;30.07;97931.41;5037530;28;707;-77
2022/08/04 02:22:32;;;;;;;;;;;;;;;21.41;30.43;97932.59;5052604;28;732;-77
2022/08/04 02:25:02;;;;;;;;;;;;;;;21.69;29.98;97926.16;5052490;28;723;-77
2022/08/04 02:27:28;;;;;;;;;;;;;;;21.67;29.67;97925.81;5034610;28;895;-77
2022/08/04 02:29:55;;;;;;;;;;;;;;;21.64;29.65;97929.53;5034732;28;1906;-77
2022/08/04 02:32:28;;;;;;;;;;;;;;;21.67;30.01;97934.31;5034341;28;844;-77
2022/08/04 02:34:55;;;;;;;;;;;;;;;21.64;29.74;97938.00;5034476;28;823;-77
2022/08/04 02:37:20;;;;;;;;;;;;;;;21.58;30.33;97925.66;5034323;28;891;-77
2022/08/04 02:39:46;;;;;;;;;;;;;;;21.53;30.09;97940.34;5034339;28;856;-77
2022/08/04 02:42:12;;;;;;;;;;;;;;;21.42;30.21;97934.19;5034236;28;723;-77
2022/08/04 02:44:37;;;;;;;;;;;;;;;21.64;29.60;97935.19;5034235;28;801;-77
2022/08/04 02:47:03;;;;;;;;;;;;;;;21.63;29.55;97939.25;5034228;28;1220;-77
2022/08/04 02:49:28;;;;;;;;;;;;;;;22.17;29.44;97927.19;5034076;28;1894;-77
2022/08/04 02:51:54;;;;;;;;;;;;;;;22.33;30.31;97929.19;5034399;28;926;-77
2022/08/04 02:54:22;;;;;;;;;;;;;;;22.29;30.62;97934.94;5034583;28;973;-77
2022/08/04 02:56:47;;;;;;;;;;;;;;;22.28;30.41;97933.38;5034687;28;794;-77
2022/08/04 02:59:13;;;;;;;;;;;;;;;22.17;30.31;97943.41;5034127;28;730;-77
2022/08/04 03:01:38;;;;;;;;;;;;;;;22.03;30.43;97930.44;5033872;28;763;-77
2022/08/04 03:04:04;;;;;;;;;;;;;;;21.85;30.20;97931.75;5034163;28;940;-77
2022/08/04 03:06:32;;;;;;;;;;;;;;;21.99;30.40;97929.75;5036504;28;766;-77
2022/08/04 03:09:01;;;;;;;;;;;;;;;21.67;30.82;97922.97;5036217;28;1973;-77
2022/08/04 03:11:27;;;;;;;;;;;;;;;21.72;30.35;97925.25;5036410;28;703;-77
2022/08/04 03:14:12;;;;;;;;;;;;;;;21.83;30.55;97928.56;5051597;28;786;-77
2022/08/04 03:16:55;;;;;;;;;;;;;;;21.70;30.40;97929.78;5035942;28;793;-76
2022/08/04 03:19:39;;;;;;;;;;;;;;;21.70;30.36;97922.06;5033280;28;1004;-77
2022/08/04 03:22:23;;;;;;;;;;;;;;;21.70;30.44;97922.06;5033617;28;754;-77
2022/08/04 03:24:51;;;;;;;;;;;;;;;21.64;30.63;97923.06;5033557;28;858;-77
2022/08/04 03:27:29;;;;;;;;;;;;;;;21.90;30.29;97929.59;5033630;28;818;-77
2022/08/04 03:30:13;;;;;;;;;;;;;;;21.57;30.58;97924.88;5033278;28;2228;-77
2022/08/04 03:32:38;;;;;;;;;;;;;;;21.73;30.21;97926.06;5033449;28;731;-77
2022/08/04 03:35:09;;;;;;;;;;;;;;;22.00;29.45;97928.50;5033354;28;799;-77
2022/08/04 03:37:43;;;;;;;;;;;;;;;21.62;30.22;97931.22;5033382;28;845;-77
2022/08/04 03:40:17;;;;;;;;;;;;;;;21.56;30.00;97916.81;5033556;28;814;-77
2022/08/04 03:43:01;;;;;;;;;;;;;;;21.64;30.18;97923.84;5033336;28;854;-77
2022/08/04 03:45:37;;;;;;;;;;;;;;;21.76;29.72;97937.28;5033311;28;937;-77
2022/08/04 03:48:06;;;;;;;;;;;;;;;21.67;29.99;97922.19;5052733;28;1056;-77
2022/08/04 03:50:34;;;;;;;;;;;;;;;21.75;29.52;97929.22;5047638;28;983;-77
2022/08/04 03:53:18;;;;;;;;;;;;;;;21.64;29.63;97926.69;5052917;28;886;-77
2022/08/04 03:55:46;;;;;;;;;;;;;;;21.61;29.69;97929.66;5052509;28;755;-77
2022/08/04 03:58:20;;;;;;;;;;;;;;;21.72;29.50;97930.94;5052676;28;864;-77
2022/08/04 04:01:03;;;;;;;;;;;;;;;21.57;29.63;97946.72;5052857;28;780;-77
2022/08/04 04:03:47;;;;;;;;;;;;;;;21.67;29.80;97942.78;5052815;28;945;-77
2022/08/04 04:06:51;;;;;;;;;;;;;;;21.39;29.83;97935.06;5052902;28;731;-77
2022/08/04 04:09:22;;;;;;;;;;;;;;;21.52;29.56;97944.44;4993814;28;1970;-77
2022/08/04 04:11:56;;;;;;;;;;;;;;;21.51;29.58;97948.50;4958060;28;1288;-77
2022/08/04 04:14:42;;;;;;;;;;;;;;;21.90;29.10;97938.09;4957965;28;992;-77
2022/08/04 04:17:43;;;;;;;;;;;;;;;21.70;29.22;97944.72;4974220;28;976;-77
2022/08/04 04:20:09;;;;;;;;;;;;;;;21.79;29.12;97942.03;4899875;29;1026;-77
2022/08/04 04:23:01;;;;;;;;;;;;;;;21.77;29.24;97943.75;4916906;29;985;-77
2022/08/04 04:25:32;;;;;;;;;;;;;;;21.50;29.75;97947.72;4916793;29;984;-77
2022/08/04 04:28:00;;;;;;;;;;;;;;;21.45;29.66;97945.44;4916745;29;1141;-77
2022/08/04 04:30:51;;;;;;;;;;;;;;;22.16;29.48;97942.63;4935481;29;1907;-77
2022/08/04 04:33:31;;;;;;;;;;;;;;;22.33;29.70;97949.81;4842453;29;1033;-77
2022/08/04 04:36:06;;;;;;;;;;;;;;;22.27;29.91;97948.75;4841979;29;1043;-77
2022/08/04 04:38:37;;;;;;;;;;;;;;;22.09;30.06;97943.59;4824281;29;1359;-77
2022/08/04 04:41:04;;;;;;;;;;;;;;;22.19;30.07;97955.91;4824036;29;1042;-77
2022/08/04 04:43:36;;;;;;;;;;;;;;;21.97;30.38;97946.41;4809468;29;1243;-77
2022/08/04 04:46:20;;;;;;;;;;;;;;;21.99;30.28;97943.91;4805512;29;1003;-77
2022/08/04 04:48:45;;;;;;;;;;;;;;;21.97;29.99;97952.09;4805413;29;1924;-77
2022/08/04 04:51:13;;;;;;;;;;;;;;;21.75;30.42;97952.66;4806046;29;951;-77
2022/08/04 04:53:42;;;;;;;;;;;;;;;21.81;30.48;97950.91;4792093;29;1030;-77
2022/08/04 04:56:10;;;;;;;;;;;;;;;22.07;30.14;97945.28;4787851;30;1083;-78
2022/08/04 04:58:36;;;;;;;;;;;;;;;21.94;30.40;97950.94;4787702;30;1064;-77
2022/08/04 05:01:13;;;;;;;;;;;;;;;21.65;30.75;97953.75;4811314;29;1107;-77
2022/08/04 05:03:44;;;;;;;;;;;;;;;21.46;31.09;97949.03;4842324;29;982;-77
2022/08/04 05:06:16;;;;;;;;;;;;;;;21.74;30.76;97938.97;4863382;29;975;-77
2022/08/04 05:08:48;;;;;;;;;;;;;;;21.81;30.75;97948.06;4880756;29;1911;-77
2022/08/04 05:11:13;;;;;;;;;;;;;;;21.71;30.85;97940.66;4900254;29;1105;-77
2022/08/04 05:13:59;;;;;;;;;;;;;;;21.62;31.06;97949.00;4932241;29;969;-77
2022/08/04 05:16:26;;;;;;;;;;;;;;;21.78;30.64;97959.50;4905507;29;980;-77
2022/08/04 05:19:00;;;;;;;;;;;;;;;21.82;30.89;97960.97;4935831;29;937;-77
2022/08/04 05:21:42;;;;;;;;;;;;;;;21.84;30.67;97955.66;4919828;29;934;-77
2022/08/04 05:24:08;;;;;;;;;;;;;;;21.67;30.78;97956.97;4973796;28;896;-77
2022/08/04 05:26:34;;;;;;;;;;;;;;;21.91;30.57;97959.53;4957665;29;962;-77
2022/08/04 05:29:01;;;;;;;;;;;;;;;21.79;31.03;97959.03;4973605;28;1911;-77
2022/08/04 05:31:28;;;;;;;;;;;;;;;21.72;30.85;97964.91;4962930;28;1029;-77
2022/08/04 05:34:10;;;;;;;;;;;;;;;21.70;30.78;97966.59;4919595;29;913;-77
2022/08/04 05:36:43;;;;;;;;;;;;;;;21.83;30.85;97965.41;4914640;29;1037;-77
2022/08/04 05:39:13;;;;;;;;;;;;;;;21.78;30.70;97960.28;4911578;29;1271;-77
2022/08/04 05:41:39;;;;;;;;;;;;;;;21.75;30.69;97968.88;4938227;29;962;-77
2022/08/04 05:44:06;;;;;;;;;;;;;;;21.93;30.49;97962.72;4938541;29;1240;-77
2022/08/04 05:46:31;;;;;;;;;;;;;;;22.00;30.25;97963.28;4938022;29;1499;-77
2022/08/04 05:48:57;;;;;;;;;;;;;;;21.87;30.62;97965.31;4937712;29;1914;-77
2022/08/04 05:51:22;;;;;;;;;;;;;;;21.67;30.92;97968.28;4938039;29;948;-76
2022/08/04 05:53:48;;;;;;;;;;;;;;;21.88;30.76;97966.09;4919333;29;956;-77
2022/08/04 05:56:13;;;;;;;;;;;;;;;21.82;30.65;97958.16;4881288;29;1108;-77
2022/08/04 05:58:39;;;;;;;;;;;;;;;21.84;30.64;97961.31;4881365;29;936;-77
2022/08/04 06:01:04;;;;;;;;;;;;;;;21.76;30.65;97959.13;4881380;29;997;-77
2022/08/04 06:03:30;;;;;;;;;;;;;;;22.00;30.50;97962.50;4881951;29;942;-77
2022/08/04 06:05:55;;;;;;;;;;;;;;;21.97;30.53;97957.75;4881511;29;1070;-77
2022/08/04 06:08:21;;;;;;;;;;;;;;;21.82;30.91;97963.81;4886759;29;1985;-77
2022/08/04 06:10:47;;;;;;;;;;;;;;;21.76;30.71;97971.28;4900419;29;1023;-77
2022/08/04 06:13:13;;;;;;;;;;;;;;;21.75;30.85;97966.81;4899949;29;901;-77
2022/08/04 06:15:39;;;;;;;;;;;;;;;22.10;30.65;97961.41;4881296;29;1116;-77
2022/08/04 06:18:05;;;;;;;;;;;;;;;21.76;31.11;97964.78;4881238;29;1093;-77
2022/08/04 06:20:32;;;;;;;;;;;;;;;21.92;30.77;97958.31;4885661;29;990;-77
2022/08/04 06:22:59;;;;;;;;;;;;;;;21.63;31.30;97959.09;4901037;29;1012;-77
2022/08/04 06:25:28;;;;;;;;;;;;;;;21.68;31.05;97964.22;4913779;29;1007;-77
2022/08/04 06:27:54;;;;;;;;;;;;;;;21.69;31.26;97954.47;4902831;29;980;-77
2022/08/04 06:30:20;;;;;;;;;;;;;;;21.79;31.44;97959.03;4918622;29;1981;-77
2022/08/04 06:32:55;;;;;;;;;;;;;;;21.73;31.27;97948.72;4937434;29;1194;-77
2022/08/04 06:35:22;;;;;;;;;;;;;;;22.03;31.01;97955.94;4923109;29;984;-77
2022/08/04 06:37:47;;;;;;;;;;;;;;;21.83;31.13;97948.41;4936976;29;1130;-77
2022/08/04 06:40:13;;;;;;;;;;;;;;;22.00;30.86;97956.84;4937785;29;968;-79
2022/08/04 06:42:39;;;;;;;;;;;;;;;21.83;31.21;97954.06;4937456;29;1093;-77
2022/08/04 06:45:05;;;;;;;;;;;;;;;21.89;31.23;97953.53;4937351;29;936;-77
2022/08/04 06:47:30;;;;;;;;;;;;;;;21.68;31.50;97966.25;4920771;29;1006;-78
2022/08/04 06:49:55;;;;;;;;;;;;;;;21.86;31.28;97952.38;4883213;29;1910;-77
2022/08/04 06:52:21;;;;;;;;;;;;;;;21.93;31.26;97957.06;4912382;29;959;-77
2022/08/04 06:54:47;;;;;;;;;;;;;;;22.09;30.91;97957.78;4931203;29;960;-77
2022/08/04 06:57:13;;;;;;;;;;;;;;;22.12;30.81;97958.94;4944649;28;1022;-77
2022/08/04 06:59:42;;;;;;;;;;;;;;;21.93;31.24;97963.50;4972440;28;944;-77
2022/08/04 07:02:07;;;;;;;;;;;;;;;21.97;31.16;97969.09;4975380;28;921;-77
2022/08/04 07:04:33;;;;;;;;;;;;;;;21.83;31.33;97956.91;4975799;28;971;-77
2022/08/04 07:06:59;;;;;;;;;;;;;;;21.96;31.52;97961.81;4978762;28;1226;-77
2022/08/04 07:09:24;;;;;;;;;;;;;;;22.02;31.53;97962.84;4995009;28;1983;-77
2022/08/04 07:11:50;;;;;;;;;;;;;;;21.98;31.37;97959.34;4978513;28;992;-77
2022/08/04 07:14:15;;;;;;;;;;;;;;;21.96;31.54;97967.47;4994801;28;991;-77
2022/08/04 07:16:41;;;;;;;;;;;;;;;22.03;31.39;97968.06;4975165;28;922;-77
2022/08/04 07:19:06;;;;;;;;;;;;;;;21.85;31.98;97962.91;4936515;29;997;-77
2022/08/04 07:21:32;;;;;;;;;;;;;;;22.11;31.31;97963.00;4951313;28;946;-77
2022/08/04 07:23:57;;;;;;;;;;;;;;;22.00;31.49;97962.50;4940117;29;1460;-77
2022/08/04 07:26:26;;;;;;;;;;;;;;;21.94;31.52;97967.13;4940212;28;919;-77
2022/08/04 07:28:52;;;;;;;;;;;;;;;21.92;31.78;97961.94;4917685;29;1986;-77
2022/08/04 07:31:17;;;;;;;;;;;;;;;22.05;31.36;97959.13;4917209;29;963;-77
2022/08/04 07:33:43;;;;;;;;;;;;;;;22.00;31.52;97957.63;4894116;29;1064;-77
2022/08/04 07:36:08;;;;;;;;;;;;;;;21.97;31.47;97969.09;4898839;29;941;-77
2022/08/04 07:38:33;;;;;;;;;;;;;;;21.96;31.55;97961.81;4898473;29;904;-77
2022/08/04 07:41:00;;;;;;;;;;;;;;;21.91;31.56;97959.53;4879900;29;996;-77
2022/08/04 07:43:26;;;;;;;;;;;;;;;21.92;31.69;97961.13;4879665;29;943;-77
2022/08/04 07:45:51;;;;;;;;;;;;;;;22.10;31.31;97961.41;4879941;29;968;-77
2022/08/04 07:48:17;;;;;;;;;;;;;;;22.16;31.28;97958.84;4893666;29;1985;-77
2022/08/04 07:50:44;;;;;;;;;;;;;;;22.14;31.10;97962.13;4898950;29;1045;-77
2022/08/04 07:53:11;;;;;;;;;;;;;;;21.98;31.58;97960.13;4898764;29;912;-77
2022/08/04 07:55:36;;;;;;;;;;;;;;;22.09;31.16;97960.59;4902549;29;967;-77
2022/08/04 07:58:02;;;;;;;;;;;;;;;22.02;31.48;97957.16;4920423;29;995;-77
2022/08/04 08:00:28;;;;;;;;;;;;;;;21.85;31.66;97956.44;4964663;28;947;-78
2022/08/04 08:02:53;;;;;;;;;;;;;;;22.17;31.12;97972.53;4955332;28;1202;-77
2022/08/04 08:05:19;;;;;;;;;;;;;;;22.07;31.29;97970.78;4950567;29;871;-77
2022/08/04 08:07:46;;;;;;;;;;;;;;;22.04;31.53;97951.88;4936041;29;961;-77
2022/08/04 08:10:12;;;;;;;;;;;;;;;22.16;31.15;97959.63;4936229;29;1915;-78
2022/08/04 08:12:37;;;;;;;;;;;;;;;22.21;31.08;97964.75;4950512;28;911;-77
2022/08/04 08:15:04;;;;;;;;;;;;;;;22.29;30.96;97963.28;4955521;29;1136;-77
2022/08/04 08:17:29;;;;;;;;;;;;;;;22.06;31.19;97960.69;4954795;29;980;-77
2022/08/04 08:19:54;;;;;;;;;;;;;;;22.00;31.45;97962.50;4955215;29;951;-77
2022/08/04 08:22:20;;;;;;;;;;;;;;;21.93;31.45;97959.88;4955008;29;946;-77
2022/08/04 08:24:46;;;;;;;;;;;;;;;21.97;31.44;97960.59;4955161;29;972;-77
2022/08/04 08:27:11;;;;;;;;;;;;;;;21.97;31.63;97957.75;4955026;29;1031;-77
2022/08/04 08:29:37;;;;;;;;;;;;;;;21.98;31.36;97965.00;4955081;29;1986;-77
2022/08/04 08:32:02;;;;;;;;;;;;;;;22.10;31.45;97967.06;4954890;29;916;-78
2022/08/04 08:34:28;;;;;;;;;;;;;;;22.23;31.00;97970.78;4955176;28;1122;-77
2022/08/04 08:37:13;;;;;;;;;;;;;;;22.05;31.58;97964.78;4960071;28;946;-77
2022/08/04 08:39:51;;;;;;;;;;;;;;;22.06;31.04;97960.69;4942228;29;1041;-77
2022/08/04 08:42:26;;;;;;;;;;;;;;;22.08;31.38;97963.91;4940657;29;1106;-77
2022/08/04 08:45:10;;;;;;;;;;;;;;;21.80;32.00;97966.28;4958949;29;1053;-77
2022/08/04 08:47:54;;;;;;;;;;;;;;;21.87;31.61;97958.84;4963735;28;1214;-77
2022/08/04 08:50:22;;;;;;;;;;;;;;;22.12;31.23;97964.59;4997201;28;1985;-77
2022/08/04 08:53:06;;;;;;;;;;;;;;;22.08;31.22;97961.06;4981077;28;1099;-78
2022/08/04 08:55:50;;;;;;;;;;;;;;;21.99;31.48;97960.91;4997387;28;954;-77
2022/08/04 08:58:31;;;;;;;;;;;;;;;21.96;31.48;97962.59;4997668;28;1263;-77
2022/08/04 09:01:05;;;;;;;;;;;;;;;22.14;31.22;97964.97;4997334;28;942;-77
2022/08/04 09:03:37;;;;;;;;;;;;;;;22.09;31.07;97960.59;4981398;28;970;-78
2022/08/04 09:06:21;;;;;;;;;;;;;;;22.22;31.04;97957.03;4997160;28;917;-78
2022/08/04 09:09:04;;;;;;;;;;;;;;;21.89;31.34;97953.53;4980609;28;1906;-77
2022/08/04 09:11:36;;;;;;;;;;;;;;;21.88;31.54;97951.94;4997159;28;964;-77
2022/08/04 09:14:09;;;;;;;;;;;;;;;22.06;31.19;97949.38;4958100;29;1030;-78
2022/08/04 09:16:43;;;;;;;;;;;;;;;22.14;31.07;97952.84;4966981;28;1024;-78
2022/08/04 09:19:22;;;;;;;;;;;;;;;21.92;31.46;97950.59;5000251;28;933;-77
2022/08/04 09:21:52;;;;;;;;;;;;;;;22.22;30.65;97952.16;5016527;28;950;-77
2022/08/04 09:24:23;;;;;;;;;;;;;;;22.07;31.26;97939.63;5016533;28;988;-77
2022/08/04 09:26:48;;;;;;;;;;;;;;;22.31;30.85;97946.63;5016316;28;889;-77
2022/08/04 09:29:29;;;;;;;;;;;;;;;22.21;30.73;97944.91;5016314;28;1902;-77
2022/08/04 09:32:04;;;;;;;;;;;;;;;21.85;31.35;97945.91;4996482;28;965;-77
2022/08/04 09:34:32;;;;;;;;;;;;;;;21.73;31.40;97943.84;4957903;28;2079;-77
2022/08/04 09:37:12;;;;;;;;;;;;;;;21.98;31.42;97942.34;4957938;29;922;-77
2022/08/04 09:39:53;;;;;;;;;;;;;;;21.91;31.71;97945.34;4957710;28;1005;-77
2022/08/04 09:42:22;;;;;;;;;;;;;;;21.94;31.41;97941.63;4957664;28;954;-78
2022/08/04 09:44:52;;;;;;;;;;;;;;;22.06;31.47;97949.38;4973525;28;980;-80
2022/08/04 09:47:27;;;;;;;;;;;;;;;21.87;31.72;97942.66;4996373;28;1272;-76
2022/08/04 09:50:12;;;;;;;;;;;;;;;21.93;31.48;97940.06;4995990;28;1910;-76
2022/08/04 09:52:43;;;;;;;;;;;;;;;22.01;31.32;97942.22;4996369;28;997;-76
2022/08/04 09:55:27;;;;;;;;;;;;;;;22.12;31.06;97944.75;4995389;28;1092;-76
2022/08/04 09:57:55;;;;;;;;;;;;;;;21.98;31.67;97943.13;4996093;28;938;-77
2022/08/04 10:00:20;;;;;;;;;;;;;;;21.94;31.29;97935.97;4995933;28;925;-77
2022/08/04 10:02:47;;;;;;;;;;;;;;;22.28;31.16;97933.38;5004356;28;902;-77
2022/08/04 10:05:13;;;;;;;;;;;;;;;22.27;30.81;97942.28;5022647;28;1358;-76
2022/08/04 10:07:57;;;;;;;;;;;;;;;22.04;31.52;97932.03;5019209;28;974;-77
2022/08/04 10:10:23;;;;;;;;;;;;;;;22.10;31.13;97933.88;5035065;28;1976;-77
2022/08/04 10:12:51;;;;;;;;;;;;;;;21.91;31.37;97939.69;5035665;28;944;-77
2022/08/04 10:15:23;;;;;;;;;;;;;;;22.15;31.07;97946.72;5040597;28;1648;-76
2022/08/04 10:18:07;;;;;;;;;;;;;;;22.20;30.92;97937.66;5038795;28;969;-76
2022/08/04 10:20:35;;;;;;;;;;;;;;;22.18;30.78;97931.66;5054927;28;990;-77
2022/08/04 10:23:19;;;;;;;;;;;;;;;22.22;31.03;97940.03;5055122;28;976;-77
2022/08/04 10:26:05;;;;;;;;;;;;;;;22.04;31.40;97946.19;5055097;28;937;-77
2022/08/04 10:28:31;;;;;;;;;;;;;;;22.25;31.31;97945.59;5038627;28;1987;-77
2022/08/04 10:31:00;;;;;;;;;;;;;;;22.24;31.29;97946.06;5038329;28;964;-77
2022/08/04 10:33:48;;;;;;;;;;;;;;;22.25;30.97;97934.25;5038308;28;890;-77
2022/08/04 10:36:16;;;;;;;;;;;;;;;22.04;31.42;97934.88;5015065;28;1078;-77
2022/08/04 10:38:56;;;;;;;;;;;;;;;22.41;30.64;97941.09;5014830;28;928;-77
2022/08/04 10:41:37;;;;;;;;;;;;;;;22.33;30.75;97941.31;5014987;28;988;-77
2022/08/04 10:44:09;;;;;;;;;;;;;;;22.12;31.10;97941.94;5014738;28;973;-77
2022/08/04 10:46:35;;;;;;;;;;;;;;;22.04;31.47;97937.69;5015004;28;1057;-77
2022/08/04 10:49:07;;;;;;;;;;;;;;;22.18;30.98;97937.31;5014951;28;1910;-77
2022/08/04 10:51:36;;;;;;;;;;;;;;;22.14;31.36;97939.47;4975751;28;994;-77
2022/08/04 10:54:02;;;;;;;;;;;;;;;22.11;31.05;97917.66;4975539;28;970;-76
2022/08/04 10:56:46;;;;;;;;;;;;;;;21.90;31.59;97926.78;4975890;28;929;-77
2022/08/04 10:59:16;;;;;;;;;;;;;;;22.01;31.29;97921.59;4975294;28;954;-77
2022/08/04 11:01:43;;;;;;;;;;;;;;;21.92;31.51;97927.16;4975410;28;984;-77
2022/08/04 11:04:11;;;;;;;;;;;;;;;22.19;30.86;97915.44;4975692;28;910;-77
2022/08/04 11:06:36;;;;;;;;;;;;;;;22.07;31.09;97914.13;4974667;28;935;-77
2022/08/04 11:09:02;;;;;;;;;;;;;;;22.22;30.95;97912.47;4975123;28;1976;-77
2022/08/04 11:11:32;;;;;;;;;;;;;;;22.12;30.89;97924.94;4975662;28;976;-77
2022/08/04 11:14:14;;;;;;;;;;;;;;;22.28;30.71;97922.03;4975646;28;1023;-77
2022/08/04 11:16:45;;;;;;;;;;;;;;;21.96;31.22;97925.78;4959233;28;982;-77
2022/08/04 11:19:10;;;;;;;;;;;;;;;22.14;31.14;97928.13;4975081;28;1027;-77
2022/08/04 11:21:38;;;;;;;;;;;;;;;22.10;31.11;97921.72;4975095;28;921;-77
2022/08/04 11:24:06;;;;;;;;;;;;;;;22.20;31.17;97931.19;4975404;28;959;-77
2022/08/04 11:26:37;;;;;;;;;;;;;;;22.29;30.76;97920.78;4959419;28;944;-77
2022/08/04 11:29:14;;;;;;;;;;;;;;;22.19;30.95;97919.06;4969438;28;1977;-77
2022/08/04 11:31:42;;;;;;;;;;;;;;;22.33;30.68;97912.97;5014261;28;958;-77
2022/08/04 11:34:18;;;;;;;;;;;;;;;22.08;30.81;97910.06;4997870;28;954;-77
2022/08/04 11:36:46;;;;;;;;;;;;;;;21.99;31.07;97907.09;5014323;28;928;-77
2022/08/04 11:39:13;;;;;;;;;;;;;;;22.20;30.70;97903.63;5014118;28;1047;-77
2022/08/04 11:41:47;;;;;;;;;;;;;;;22.28;30.64;97907.84;4997613;28;994;-77
2022/08/04 11:44:23;;;;;;;;;;;;;;;21.93;31.09;97900.41;5014020;28;971;-77
2022/08/04 11:46:50;;;;;;;;;;;;;;;22.21;30.74;97908.06;5032857;28;1142;-77
2022/08/04 11:49:20;;;;;;;;;;;;;;;22.35;30.73;97916.13;5056316;28;1981;-77
2022/08/04 11:51:45;;;;;;;;;;;;;;;22.35;30.73;97909.66;5056119;28;888;-77
2022/08/04 11:54:11;;;;;;;;;;;;;;;22.16;30.87;97908.63;5053369;28;930;-77
2022/08/04 11:56:36;;;;;;;;;;;;;;;22.30;30.55;97905.34;5053354;28;1141;-77
2022/08/04 11:59:02;;;;;;;;;;;;;;;22.14;30.68;97905.44;5037507;28;877;-77
2022/08/04 12:01:27;;;;;;;;;;;;;;;21.94;30.98;97918.97;5036851;28;958;-77
2022/08/04 12:03:58;;;;;;;;;;;;;;;22.01;30.91;97913.88;5053439;28;988;-77
2022/08/04 12:06:30;;;;;;;;;;;;;;;22.12;30.77;97916.41;5053326;28;949;-77
2022/08/04 12:09:04;;;;;;;;;;;;;;;22.05;30.80;97908.13;5053140;28;1922;-77
2022/08/04 12:11:29;;;;;;;;;;;;;;;22.29;30.37;97911.47;5053471;28;952;-76
2022/08/04 12:14:10;;;;;;;;;;;;;;;22.01;30.75;97907.41;5053552;28;970;-77
2022/08/04 12:16:40;;;;;;;;;;;;;;;22.27;30.44;97897.75;5053666;28;925;-77
2022/08/04 12:19:13;;;;;;;;;;;;;;;22.01;30.86;97890.41;5041032;28;940;-77
2022/08/04 12:21:39;;;;;;;;;;;;;;;21.99;30.89;97904.25;5040584;28;981;-77
2022/08/04 12:24:13;;;;;;;;;;;;;;;21.92;30.89;97904.47;5040463;28;958;-77
2022/08/04 12:26:40;;;;;;;;;;;;;;;22.18;30.31;97899.69;5059428;28;959;-77
2022/08/04 12:29:05;;;;;;;;;;;;;;;21.92;30.92;97904.47;5075190;28;1901;-77
2022/08/04 12:31:31;;;;;;;;;;;;;;;22.08;30.58;97890.22;5074830;28;974;-77
2022/08/04 12:34:07;;;;;;;;;;;;;;;22.18;30.37;97894.81;5059690;28;856;-77
2022/08/04 12:36:54;;;;;;;;;;;;;;;22.05;30.75;97891.13;5075040;28;955;-77
2022/08/04 12:39:20;;;;;;;;;;;;;;;21.87;30.91;97897.31;5075347;28;1145;-77
2022/08/04 12:41:55;;;;;;;;;;;;;;;22.10;30.57;97896.22;5074916;28;930;-77
2022/08/04 12:44:20;;;;;;;;;;;;;;;22.24;30.08;97897.88;5074857;28;941;-77
2022/08/04 12:46:46;;;;;;;;;;;;;;;22.22;30.33;97895.47;5058919;28;1168;-77
2022/08/04 12:49:11;;;;;;;;;;;;;;;21.93;30.70;97889.06;5059482;28;1914;-77
2022/08/04 12:51:39;;;;;;;;;;;;;;;22.05;30.60;97883.41;5056858;28;969;-77
2022/08/04 12:54:05;;;;;;;;;;;;;;;22.04;30.56;97895.19;5057021;28;943;-77
2022/08/04 12:56:31;;;;;;;;;;;;;;;22.09;30.56;97897.47;5074501;28;923;-77
2022/08/04 12:59:00;;;;;;;;;;;;;;;22.26;30.31;97896.16;5056419;28;910;-77
2022/08/04 13:01:26;;;;;;;;;;;;;;;22.05;30.50;97893.94;5040224;28;988;-77
2022/08/04 13:03:52;;;;;;;;;;;;;;;22.08;30.23;97890.22;5056635;28;992;-77
2022/08/04 13:06:22;;;;;;;;;;;;;;;21.95;30.79;97878.84;5039959;28;945;-77
2022/08/04 13:08:48;;;;;;;;;;;;;;;22.05;30.48;97885.44;5023296;28;1906;-77
2022/08/04 13:11:13;;;;;;;;;;;;;;;21.89;30.90;97882.72;5056459;28;1013;-77
2022/08/04 13:13:39;;;;;;;;;;;;;;;22.24;30.33;97884.50;5056178;28;999;-77
2022/08/04 13:16:08;;;;;;;;;;;;;;;22.29;30.06;97892.44;5039468;28;1351;-78
2022/08/04 13:18:35;;;;;;;;;;;;;;;22.02;30.43;97889.16;5039640;28;1124;-77